createdAt,value
2019-02-19T00:02:28.452Z,96.22
2019-02-19T00:04:57.163Z,96.49
2019-02-19T00:07:25.802Z,96.41
2019-02-19T00:09:54.602Z,95.80
2019-02-19T00:12:23.230Z,95.84
2019-02-19T00:14:51.831Z,95.84
2019-02-19T00:17:20.540Z,95.77
2019-02-19T00:19:49.154Z,95.59
2019-02-19T00:22:17.806Z,95.45
2019-02-19T00:24:46.552Z,95.49
2019-02-19T00:27:15.252Z,95.56
2019-02-19T00:29:43.859Z,95.57
2019-02-19T00:32:12.494Z,95.12
2019-02-19T00:34:41.102Z,94.97
2019-02-19T00:37:09.903Z,95.16
2019-02-19T00:39:38.460Z,95.75
2019-02-19T00:42:07.076Z,95.62
2019-02-19T00:44:35.710Z,96.14
2019-02-19T00:47:04.328Z,96.44
2019-02-19T00:49:32.928Z,96.67
2019-02-19T00:52:01.554Z,96.72
2019-02-19T00:54:30.176Z,96.55
2019-02-19T00:56:58.803Z,96.66
2019-02-19T00:59:27.417Z,96.42
2019-02-19T01:01:56.064Z,96.62
2019-02-19T01:04:24.738Z,96.66
2019-02-19T01:06:53.365Z,96.58
2019-02-19T01:09:21.986Z,96.32
2019-02-19T01:14:24.730Z,96.47
2019-02-19T01:16:53.348Z,96.80
2019-02-19T01:19:21.977Z,97.09
2019-02-19T01:21:50.623Z,97.38
2019-02-19T01:24:19.237Z,97.55
2019-02-19T01:26:47.854Z,98.26
2019-02-19T01:29:16.475Z,98.65
2019-02-19T01:31:45.099Z,98.98
2019-02-19T01:34:13.741Z,99.38
2019-02-19T01:36:42.386Z,99.52
2019-02-19T01:39:11.015Z,99.60
2019-02-19T01:41:39.623Z,99.39
2019-02-19T01:44:08.258Z,99.23
2019-02-19T01:46:36.881Z,99.16
2019-02-19T01:49:05.598Z,99.37
2019-02-19T01:51:34.221Z,99.42
2019-02-19T01:54:02.839Z,99.26
2019-02-19T01:56:31.449Z,99.26
2019-02-19T01:59:00.084Z,98.99
2019-02-19T02:01:28.701Z,98.93
2019-02-19T02:03:57.334Z,98.89
2019-02-19T02:06:25.955Z,98.53
2019-02-19T02:08:54.583Z,98.24
2019-02-19T02:11:23.204Z,98.06
2019-02-19T02:13:51.833Z,97.85
2019-02-19T02:16:20.455Z,97.59
2019-02-19T02:18:49.083Z,97.55
2019-02-19T02:21:17.679Z,97.47
2019-02-19T02:23:46.325Z,97.56
2019-02-19T02:26:14.938Z,97.61
2019-02-19T02:28:43.555Z,97.33
2019-02-19T02:31:12.249Z,97.34
2019-02-19T02:33:40.853Z,97.45
2019-02-19T02:36:09.497Z,97.69
2019-02-19T02:38:38.123Z,97.84
2019-02-19T02:41:06.769Z,97.84
2019-02-19T02:43:35.387Z,97.63
2019-02-19T02:46:04.124Z,97.57
2019-02-19T02:48:32.773Z,97.67
2019-02-19T02:51:01.367Z,97.70
2019-02-19T02:53:29.995Z,98.08
2019-02-19T02:55:58.622Z,98.42
2019-02-19T02:58:27.237Z,98.35
2019-02-19T03:00:55.864Z,98.17
2019-02-19T03:03:24.479Z,97.96
2019-02-19T03:06:31.334Z,97.73
2019-02-19T03:08:59.945Z,97.28
2019-02-19T03:11:28.640Z,97.42
2019-02-19T03:13:57.317Z,97.68
2019-02-19T03:16:25.935Z,98.05
2019-02-19T03:18:54.573Z,98.06
2019-02-19T03:21:23.198Z,97.91
2019-02-19T03:23:51.881Z,98.04
2019-02-19T03:26:20.502Z,98.26
2019-02-19T03:28:49.262Z,98.41
2019-02-19T03:31:17.923Z,98.24
2019-02-19T03:33:46.541Z,98.23
2019-02-19T03:36:15.171Z,98.50
2019-02-19T03:38:43.784Z,98.72
2019-02-19T03:41:12.413Z,98.94
2019-02-19T03:43:41.027Z,99.13
2019-02-19T03:46:12.472Z,99.03
2019-02-19T03:48:40.029Z,99.32
2019-02-19T03:51:08.655Z,99.29
2019-02-19T03:53:37.305Z,99.13
2019-02-19T03:56:05.996Z,98.95
2019-02-19T03:58:34.678Z,98.92
2019-02-19T04:01:03.349Z,98.95
2019-02-19T04:03:32.053Z,99.05
2019-02-19T04:06:00.733Z,99.02
2019-02-19T04:08:29.400Z,98.91
2019-02-19T04:10:58.013Z,98.73
2019-02-19T04:13:26.645Z,98.75
2019-02-19T04:15:55.251Z,98.73
2019-02-19T04:18:23.887Z,98.63
2019-02-19T04:20:52.549Z,98.43
2019-02-19T04:23:21.173Z,98.54
2019-02-19T04:25:49.798Z,98.80
2019-02-19T04:28:18.443Z,98.95
2019-02-19T04:30:47.051Z,98.89
2019-02-19T04:33:15.687Z,99.19
2019-02-19T04:35:44.346Z,99.40
2019-02-19T04:38:12.972Z,99.52
2019-02-19T04:40:41.600Z,99.44
2019-02-19T04:43:10.239Z,99.40
2019-02-19T04:45:38.833Z,99.22
2019-02-19T04:48:07.453Z,99.06
2019-02-19T04:50:36.073Z,98.89
2019-02-19T04:53:04.710Z,99.30
2019-02-19T04:55:33.334Z,99.67
2019-02-19T04:58:01.985Z,99.93
2019-02-19T05:00:30.743Z,100.00
2019-02-19T05:02:59.360Z,100.00
2019-02-19T05:05:27.991Z,100.00
2019-02-19T05:07:56.606Z,99.82
2019-02-19T05:10:25.223Z,99.78
2019-02-19T05:12:53.841Z,99.49
2019-02-19T05:15:22.492Z,99.74
2019-02-19T05:17:51.203Z,100.00
2019-02-19T05:20:19.857Z,100.00
2019-02-19T05:22:48.533Z,100.00
2019-02-19T05:25:17.211Z,100.00
2019-02-19T05:27:45.919Z,100.00
2019-02-19T05:30:14.584Z,100.00
2019-02-19T05:32:43.216Z,99.98
2019-02-19T05:35:11.933Z,99.90
2019-02-19T05:37:40.604Z,100.00
2019-02-19T05:40:09.546Z,100.00
2019-02-19T05:42:38.259Z,100.00
2019-02-19T05:45:07.135Z,100.00
2019-02-19T05:47:35.940Z,100.00
2019-02-19T05:50:04.691Z,100.00
2019-02-19T05:52:33.388Z,99.91
2019-02-19T05:55:02.011Z,99.60
2019-02-19T05:57:30.681Z,99.21
2019-02-19T05:59:59.293Z,98.96
2019-02-19T06:02:27.999Z,98.53
2019-02-19T06:04:56.620Z,98.41
2019-02-19T06:07:25.246Z,98.43
2019-02-19T06:09:53.932Z,98.50
2019-02-19T06:12:22.565Z,98.59
2019-02-19T06:14:51.195Z,98.56
2019-02-19T06:17:19.825Z,98.81
2019-02-19T06:19:48.452Z,99.01
2019-02-19T06:22:17.070Z,99.27
2019-02-19T06:27:21.379Z,99.24
2019-02-19T06:29:49.994Z,98.98
2019-02-19T06:32:18.621Z,98.80
2019-02-19T06:34:47.250Z,98.64
2019-02-19T06:37:15.878Z,98.45
2019-02-19T06:39:44.496Z,98.22
2019-02-19T06:42:13.114Z,97.89
2019-02-19T06:44:41.809Z,97.50
2019-02-19T06:47:10.441Z,97.54
2019-02-19T06:49:39.152Z,97.53
2019-02-19T06:52:07.832Z,97.56
2019-02-19T06:54:36.468Z,97.50
2019-02-19T06:57:05.120Z,97.08
2019-02-19T06:59:33.768Z,96.79
2019-02-19T07:02:21.373Z,96.45
2019-02-19T07:05:09.023Z,96.23
2019-02-19T07:07:37.659Z,96.23
2019-02-19T07:10:06.561Z,96.10
2019-02-19T07:12:35.195Z,96.13
2019-02-19T07:15:04.178Z,95.79
2019-02-19T07:17:32.795Z,95.54
2019-02-19T07:20:01.424Z,95.42
2019-02-19T07:22:30.037Z,95.06
2019-02-19T07:24:58.671Z,95.09
2019-02-19T07:27:27.281Z,95.52
2019-02-19T07:29:55.921Z,95.71
2019-02-19T07:32:24.537Z,95.61
2019-02-19T07:34:53.170Z,95.40
2019-02-19T07:37:21.784Z,94.91
2019-02-19T07:39:50.407Z,94.55
2019-02-19T07:42:19.030Z,94.25
2019-02-19T07:44:47.660Z,94.23
2019-02-19T07:47:24.246Z,94.40
2019-02-19T07:49:46.647Z,94.37
2019-02-19T07:52:15.278Z,94.31
2019-02-19T07:54:44.040Z,94.26
2019-02-19T07:57:12.661Z,94.32
2019-02-19T07:59:41.279Z,94.29
2019-02-19T08:02:09.922Z,94.21
2019-02-19T08:04:38.547Z,94.10
2019-02-19T08:07:07.254Z,93.94
2019-02-19T08:09:35.952Z,94.00
2019-02-19T08:12:04.578Z,94.05
2019-02-19T08:14:33.202Z,94.05
2019-02-19T08:17:01.901Z,93.96
2019-02-19T08:19:30.521Z,94.21
2019-02-19T08:21:59.183Z,94.43
2019-02-19T08:24:27.801Z,94.96
2019-02-19T08:26:56.450Z,95.10
2019-02-19T08:29:25.076Z,95.68
2019-02-19T08:31:53.717Z,96.02
2019-02-19T08:34:22.404Z,96.64
2019-02-19T08:36:51.036Z,96.84
2019-02-19T08:39:19.658Z,97.18
2019-02-19T08:41:48.266Z,97.36
2019-02-19T08:44:16.891Z,97.59
2019-02-19T08:46:45.528Z,97.61
2019-02-19T08:49:14.154Z,98.15
2019-02-19T08:51:42.775Z,98.58
2019-02-19T08:54:11.414Z,98.76
2019-02-19T08:56:40.031Z,98.80
2019-02-19T08:59:08.663Z,99.53
2019-02-19T09:01:37.378Z,99.69
2019-02-19T09:04:06.022Z,100.00
2019-02-19T09:06:34.650Z,100.00
2019-02-19T09:11:39.203Z,100.00
2019-02-19T09:14:07.843Z,100.00
2019-02-19T09:16:36.543Z,100.00
2019-02-19T09:19:05.264Z,100.00
2019-02-19T09:21:33.877Z,100.00
2019-02-19T09:24:09.226Z,100.00
2019-02-19T09:26:32.898Z,100.00
2019-02-19T09:29:01.534Z,100.00
2019-02-19T09:31:30.170Z,100.00
2019-02-19T09:33:58.807Z,100.00
2019-02-19T09:36:27.442Z,100.00
2019-02-19T09:38:56.083Z,100.00
2019-02-19T09:41:24.702Z,100.00
2019-02-19T09:43:53.381Z,100.00
2019-02-19T09:46:22.029Z,100.00
2019-02-19T09:48:50.697Z,100.00
2019-02-19T09:51:19.351Z,100.00
2019-02-19T09:53:47.984Z,100.00
2019-02-19T09:56:16.615Z,100.00
2019-02-19T09:58:45.228Z,100.00
2019-02-19T10:01:13.956Z,100.00
2019-02-19T10:03:42.584Z,100.00
2019-02-19T10:06:11.211Z,100.00
2019-02-19T10:08:39.835Z,100.00
2019-02-19T10:11:08.494Z,100.00
2019-02-19T10:13:37.115Z,100.00
2019-02-19T10:16:05.819Z,100.00
2019-02-19T10:18:34.478Z,100.00
2019-02-19T10:21:03.113Z,100.00
2019-02-19T10:23:31.756Z,100.00
2019-02-19T10:26:00.363Z,100.00
2019-02-19T10:28:28.988Z,100.00
2019-02-19T10:30:57.674Z,100.00
2019-02-19T10:33:26.330Z,100.00
2019-02-19T10:35:54.957Z,100.00
2019-02-19T10:38:23.586Z,100.00
2019-02-19T10:40:52.311Z,100.00
2019-02-19T10:43:20.924Z,100.00
2019-02-19T10:45:49.573Z,100.00
2019-02-19T10:48:19.254Z,100.00
2019-02-19T10:50:48.604Z,100.00
2019-02-19T10:53:17.279Z,100.00
2019-02-19T10:55:45.902Z,100.00
2019-02-19T10:58:22.629Z,100.00
2019-02-19T11:00:45.035Z,100.00
2019-02-19T11:03:13.659Z,100.00
2019-02-19T11:05:42.430Z,100.00
2019-02-19T11:08:11.087Z,100.00
2019-02-19T11:10:39.711Z,100.00
2019-02-19T11:13:08.339Z,100.00
2019-02-19T11:15:36.963Z,100.00
2019-02-19T11:18:05.606Z,100.00
2019-02-19T11:20:34.305Z,100.00
2019-02-19T11:23:02.926Z,100.00
2019-02-19T11:25:31.547Z,100.00
2019-02-19T11:28:00.190Z,100.00
2019-02-19T11:30:28.938Z,99.78
2019-02-19T11:32:57.573Z,98.90
2019-02-19T11:35:26.266Z,98.18
2019-02-19T11:37:54.897Z,98.33
2019-02-19T11:40:23.590Z,98.43
2019-02-19T11:42:52.216Z,98.13
2019-02-19T11:45:20.933Z,98.76
2019-02-19T11:47:49.576Z,98.81
2019-02-19T11:50:18.232Z,99.10
2019-02-19T11:52:46.840Z,99.27
2019-02-19T11:55:15.487Z,98.95
2019-02-19T11:58:03.331Z,98.85
2019-02-19T12:00:34.955Z,98.76
2019-02-19T12:03:03.694Z,97.74
2019-02-19T12:05:32.390Z,98.07
2019-02-19T12:08:01.069Z,97.10
2019-02-19T12:10:29.704Z,95.54
2019-02-19T12:12:58.369Z,95.28
2019-02-19T12:15:34.912Z,95.71
2019-02-19T12:17:57.381Z,94.95
2019-02-19T12:20:26.031Z,93.92
2019-02-19T12:22:54.639Z,93.30
2019-02-19T12:25:23.388Z,91.73
2019-02-19T12:27:52.003Z,92.15
2019-02-19T12:30:20.749Z,90.82
2019-02-19T12:32:49.368Z,90.81
2019-02-19T12:35:18.090Z,89.90
2019-02-19T12:37:46.729Z,88.91
2019-02-19T12:40:15.489Z,89.89
2019-02-19T12:42:44.106Z,89.77
2019-02-19T12:45:12.832Z,89.04
2019-02-19T12:47:41.475Z,88.66
2019-02-19T12:50:11.519Z,88.35
2019-02-19T12:52:40.233Z,89.28
2019-02-19T12:55:09.653Z,88.64
2019-02-19T12:57:38.318Z,87.89
2019-02-19T13:00:09.537Z,86.73
2019-02-19T13:02:38.202Z,86.02
2019-02-19T13:05:08.326Z,86.78
2019-02-19T13:07:37.029Z,86.84
2019-02-19T13:10:05.827Z,87.14
2019-02-19T13:12:34.439Z,86.35
2019-02-19T13:15:03.068Z,86.45
2019-02-19T13:17:34.745Z,86.87
2019-02-19T13:20:03.525Z,86.53
2019-02-19T13:22:32.162Z,87.13
2019-02-19T13:25:00.767Z,86.49
2019-02-19T13:27:29.521Z,86.14
2019-02-19T13:29:58.176Z,85.62
2019-02-19T13:32:26.786Z,83.00
2019-02-19T13:34:55.394Z,82.69
2019-02-19T13:37:24.012Z,81.98
2019-02-19T13:39:52.648Z,80.71
2019-02-19T13:42:21.396Z,79.04
2019-02-19T13:45:09.792Z,77.41
2019-02-19T13:47:38.529Z,77.12
2019-02-19T13:50:09.763Z,75.34
2019-02-19T13:52:57.412Z,73.25
2019-02-19T13:55:29.682Z,73.84
2019-02-19T13:57:58.296Z,74.88
2019-02-19T14:03:16.348Z,68.43
2019-02-19T14:05:44.947Z,67.33
2019-02-19T14:08:14.777Z,68.05
2019-02-19T14:10:43.982Z,69.09
2019-02-19T14:13:12.608Z,69.19
2019-02-19T14:16:00.316Z,69.63
2019-02-19T14:22:02.324Z,72.11
2019-02-19T14:24:42.859Z,71.03
2019-02-19T14:27:30.471Z,71.35
2019-02-19T14:30:18.151Z,69.72
2019-02-19T14:33:05.742Z,68.39
2019-02-19T14:35:53.367Z,68.86
2019-02-19T14:38:41.028Z,67.39
2019-02-19T14:41:28.740Z,67.74
2019-02-19T14:44:08.458Z,68.20
2019-02-19T14:46:56.168Z,68.62
2019-02-19T14:49:47.306Z,69.70
2019-02-19T14:52:33.248Z,69.21
2019-02-19T14:55:20.872Z,68.81
2019-02-19T14:58:06.617Z,68.85
2019-02-19T15:00:54.417Z,68.20
2019-02-19T15:03:42.032Z,68.58
2019-02-19T15:06:29.647Z,66.94
2019-02-19T15:09:17.288Z,68.13
2019-02-19T15:12:04.948Z,68.51
2019-02-19T15:14:52.599Z,68.00
2019-02-19T15:17:40.229Z,68.23
2019-02-19T15:20:27.952Z,68.16
2019-02-19T15:23:15.594Z,67.92
2019-02-19T15:26:03.246Z,68.28
2019-02-19T15:28:50.890Z,68.52
2019-02-19T15:31:38.541Z,69.51
2019-02-19T15:34:26.167Z,68.74
2019-02-19T15:37:13.806Z,68.79
2019-02-19T15:40:01.433Z,69.12
2019-02-19T15:42:57.859Z,69.00
2019-02-19T15:45:45.489Z,69.27
2019-02-19T15:48:33.209Z,69.97
2019-02-19T15:51:20.856Z,69.60
2019-02-19T15:54:08.531Z,69.43
2019-02-19T15:56:56.170Z,67.38
2019-02-19T15:59:41.650Z,68.72
2019-02-19T16:02:29.296Z,68.65
2019-02-19T16:05:17.110Z,68.73
2019-02-19T16:20:01.050Z,67.68
2019-02-19T16:22:48.689Z,67.95
2019-02-19T16:25:36.293Z,68.11
2019-02-19T16:28:24.022Z,68.19
2019-02-19T16:31:11.691Z,68.74
2019-02-19T16:33:59.384Z,69.03
2019-02-19T16:36:46.998Z,68.95
2019-02-19T16:39:34.613Z,69.17
2019-02-19T16:42:11.716Z,69.04
2019-02-19T16:44:59.429Z,68.54
2019-02-19T16:47:47.064Z,68.53
2019-02-19T16:50:34.668Z,68.33
2019-02-19T16:53:22.279Z,68.73
2019-02-19T16:56:00.856Z,69.39
2019-02-19T16:58:48.537Z,69.24
2019-02-19T17:01:29.182Z,69.60
2019-02-19T17:04:08.607Z,70.18
2019-02-19T17:06:58.283Z,70.70
2019-02-19T17:09:46.267Z,70.61
2019-02-19T17:12:34.125Z,70.69
2019-02-19T17:15:21.847Z,71.19
2019-02-19T17:18:09.891Z,71.27
2019-02-19T17:20:57.753Z,71.26
2019-02-19T17:23:43.808Z,71.46
2019-02-19T17:26:32.135Z,72.07
2019-02-19T17:35:20.068Z,74.34
2019-02-19T17:41:05.467Z,75.81
2019-02-19T17:43:57.171Z,76.54
2019-02-19T17:49:39.138Z,77.53
2019-02-19T17:52:26.852Z,78.35
2019-02-19T17:55:02.614Z,78.34
2019-02-19T17:57:50.458Z,78.89
2019-02-19T18:00:38.293Z,79.05
2019-02-19T18:03:25.918Z,79.58
2019-02-19T18:06:13.560Z,80.10
2019-02-19T18:08:50.396Z,80.45
2019-02-19T18:11:38.012Z,81.01
2019-02-19T18:14:25.627Z,81.40
2019-02-19T18:17:13.257Z,81.83
2019-02-19T18:19:41.888Z,82.18
2019-02-19T18:22:10.533Z,82.91
2019-02-19T18:24:39.168Z,83.39
2019-02-19T18:27:07.822Z,83.84
2019-02-19T18:29:36.442Z,84.15
2019-02-19T18:32:05.110Z,84.61
2019-02-19T18:34:33.740Z,84.75
2019-02-19T18:37:02.486Z,84.66
2019-02-19T18:39:31.125Z,84.72
2019-02-19T18:41:59.743Z,84.83
2019-02-19T18:44:28.383Z,84.92
2019-02-19T18:46:57.055Z,85.08
2019-02-19T18:49:25.690Z,85.14
2019-02-19T18:51:54.299Z,85.18
2019-02-19T18:54:23.020Z,85.43
2019-02-19T18:56:51.646Z,85.55
2019-02-19T18:59:20.253Z,85.74
2019-02-19T19:01:48.908Z,86.05
2019-02-19T19:04:17.578Z,86.22
2019-02-19T19:06:46.218Z,86.40
2019-02-19T19:09:14.857Z,86.50
2019-02-19T19:11:43.464Z,86.67
2019-02-19T19:14:12.097Z,86.82
2019-02-19T19:16:40.845Z,86.99
2019-02-19T19:19:09.495Z,87.18
2019-02-19T19:21:38.204Z,87.46
2019-02-19T19:24:06.844Z,87.66
2019-02-19T19:26:35.493Z,88.01
2019-02-19T19:29:04.280Z,88.18
2019-02-19T19:31:34.089Z,88.24
2019-02-19T19:34:03.810Z,88.32
2019-02-19T19:36:32.650Z,88.49
2019-02-19T19:39:01.532Z,88.57
2019-02-19T19:41:30.334Z,88.49
2019-02-19T19:43:59.101Z,88.72
2019-02-19T19:46:27.846Z,89.12
2019-02-19T19:48:57.033Z,89.54
2019-02-19T19:51:25.810Z,89.30
2019-02-19T19:53:54.498Z,89.24
2019-02-19T19:56:23.293Z,88.92
2019-02-19T19:58:51.990Z,89.90
2019-02-19T20:01:20.749Z,90.12
2019-02-19T20:03:49.471Z,90.32
2019-02-19T20:06:19.118Z,90.21
2019-02-19T20:08:47.838Z,90.29
2019-02-19T20:11:16.521Z,90.25
2019-02-19T20:13:45.632Z,90.12
2019-02-19T20:16:14.528Z,90.18
2019-02-19T20:18:43.324Z,90.26
2019-02-19T20:21:12.147Z,90.52
2019-02-19T20:23:40.912Z,90.71
2019-02-19T20:28:57.515Z,91.32
2019-02-19T20:31:26.233Z,91.29
2019-02-19T20:33:54.998Z,91.37
2019-02-19T20:36:23.748Z,91.52
2019-02-19T20:38:52.500Z,91.67
2019-02-19T20:41:24.204Z,91.58
2019-02-19T20:43:52.932Z,91.34
2019-02-19T20:46:21.825Z,91.64
2019-02-19T20:48:50.582Z,91.67
2019-02-19T20:51:19.261Z,91.81
2019-02-19T20:53:48.028Z,92.07
2019-02-19T20:56:16.728Z,92.41
2019-02-19T20:58:45.480Z,93.21
2019-02-19T21:01:14.148Z,94.52
2019-02-19T21:03:44.142Z,94.59
2019-02-19T21:06:53.331Z,94.37
2019-02-19T21:09:22.035Z,94.10
2019-02-19T21:11:50.904Z,94.01
2019-02-19T21:14:19.630Z,94.59
2019-02-19T21:16:48.333Z,94.43
2019-02-19T21:19:17.124Z,94.91
2019-02-19T21:22:05.251Z,94.92
2019-02-19T21:24:34.121Z,95.99
2019-02-19T21:27:02.799Z,95.63
2019-02-19T21:29:32.231Z,96.06
2019-02-19T21:32:01.022Z,96.36
2019-02-19T21:34:29.760Z,97.21
2019-02-19T21:37:01.110Z,97.81
2019-02-19T21:39:29.871Z,98.21
2019-02-19T21:41:59.421Z,98.32
2019-02-19T21:44:28.089Z,98.19
2019-02-19T21:46:56.924Z,97.84
2019-02-19T21:49:25.817Z,98.60
2019-02-19T21:51:54.546Z,98.78
2019-02-19T21:54:23.325Z,98.46
2019-02-19T21:56:52.264Z,98.71
2019-02-19T21:59:23.393Z,98.92
2019-02-19T22:01:52.159Z,99.19
2019-02-19T22:04:20.891Z,99.72
2019-02-19T22:06:50.026Z,100.00
2019-02-19T22:09:18.764Z,100.00
2019-02-19T22:11:47.639Z,99.77
2019-02-19T22:14:16.428Z,99.59
2019-02-19T22:16:45.153Z,99.76
2019-02-19T22:19:13.990Z,99.60
2019-02-19T22:24:53.226Z,100.00
2019-02-19T22:27:22.012Z,100.00
2019-02-19T22:29:50.862Z,100.00
2019-02-19T22:35:09.371Z,99.43
2019-02-19T22:37:38.041Z,99.14
2019-02-19T22:40:06.857Z,99.00
2019-02-19T22:42:36.072Z,99.09
2019-02-19T22:45:44.522Z,99.32
2019-02-19T22:48:13.205Z,100.00
2019-02-19T22:50:41.933Z,100.00
2019-02-19T22:53:29.606Z,100.00
2019-02-19T22:56:06.823Z,99.78
2019-02-19T22:58:35.577Z,99.34
2019-02-19T23:01:44.045Z,98.65
2019-02-19T23:04:13.043Z,98.43
2019-02-19T23:06:41.890Z,98.43
2019-02-19T23:09:10.584Z,98.61
2019-02-19T23:11:39.280Z,98.53
2019-02-19T23:14:08.385Z,98.57
2019-02-19T23:16:37.155Z,98.41
2019-02-19T23:19:24.958Z,97.99
2019-02-19T23:21:53.739Z,98.51
2019-02-19T23:24:22.554Z,98.83
2019-02-19T23:26:51.505Z,98.84
2019-02-19T23:29:20.181Z,98.73
2019-02-19T23:31:49.003Z,98.74
2019-02-19T23:34:17.812Z,98.98
2019-02-19T23:39:44.071Z,99.76
2019-02-19T23:42:14.002Z,100.00
2019-02-19T23:44:42.651Z,100.00
2019-02-19T23:47:11.364Z,99.96
2019-02-19T23:49:39.993Z,99.88
2019-02-19T23:52:08.697Z,99.99
2019-02-19T23:54:37.408Z,100.00
2019-02-19T23:57:06.031Z,100.00
2019-02-19T23:59:34.691Z,100.00
